Time;durP1;ratioP1;P1;durP2;ratioP2;P2;SDS_P1;SDS_P2;PMS_P1;PMS_P2;Temp;Humidity;BMP_temperature;BMP_pressure;BME280_temperature;BME280_humidity;BME280_pressure;Samples;Min_cycle;Max_cycle;Signal;HPM_P1;HPM_P2
2021/08/30 00:06:23;;;;;;;4.18;1.20;;;16.90;99.90;;;;;;20589252;28;20045;-80
2021/08/30 00:16:24;;;;;;;2.95;1.25;;;17.00;99.90;;;;;;20514707;28;20046;-80
2021/08/30 00:26:25;;;;;;;4.90;1.60;;;16.90;99.90;;;;;;20530080;28;20068;-80
2021/08/30 00:36:27;;;;;;;5.40;1.95;;;16.90;99.90;;;;;;20547324;28;20500;-80
2021/08/30 00:46:28;;;;;;;3.88;1.30;;;16.90;99.90;;;;;;20548882;28;20052;-80
2021/08/30 00:56:29;;;;;;;5.43;1.90;;;16.90;99.90;;;;;;20557832;28;20035;-80
2021/08/30 01:06:46;;;;;;;3.90;1.70;;;16.80;99.90;;;;;;20560372;28;20075;-80
2021/08/30 01:16:48;;;;;;;4.43;2.05;;;17.00;99.90;;;;;;20510384;28;20513;-80
2021/08/30 01:26:54;;;;;;;5.20;1.48;;;16.90;99.90;;;;;;20596704;28;20062;-80
2021/08/30 01:36:57;;;;;;;5.15;1.67;;;16.80;99.90;;;;;;20570530;28;20043;-80
2021/08/30 01:46:59;;;;;;;3.75;1.55;;;16.80;99.90;;;;;;20550983;28;20080;-80
2021/08/30 01:57:00;;;;;;;4.65;2.10;;;16.80;99.90;;;;;;20549334;28;20035;-81
2021/08/30 02:07:03;;;;;;;8.38;1.85;;;16.80;99.90;;;;;;20594589;28;20146;-80
2021/08/30 02:17:11;;;;;;;5.35;1.92;;;16.80;99.90;;;;;;20603208;28;20035;-79
2021/08/30 02:27:25;;;;;;;5.13;2.20;;;16.70;99.90;;;;;;20572966;28;20084;-79
2021/08/30 02:37:32;;;;;;;5.05;2.10;;;16.70;99.90;;;;;;20568792;28;20047;-80
2021/08/30 02:47:35;;;;;;;6.43;1.90;;;16.70;99.90;;;;;;20610314;28;20043;-80
2021/08/30 02:57:38;;;;;;;6.38;2.80;;;16.60;99.90;;;;;;20570402;28;20035;-80
2021/08/30 03:07:40;;;;;;;8.23;2.22;;;16.60;99.90;;;;;;20551716;28;20053;-80
2021/08/30 03:17:44;;;;;;;7.40;2.25;;;16.40;99.90;;;;;;20573631;28;20062;-80
2021/08/30 03:27:47;;;;;;;6.55;2.55;;;16.20;99.90;;;;;;20555182;28;20074;-80
2021/08/30 03:37:49;;;;;;;16.67;3.25;;;16.00;99.90;;;;;;20514436;28;20654;-80
2021/08/30 03:47:50;;;;;;;6.82;2.83;;;16.00;99.90;;;;;;20552432;28;20055;-80
2021/08/30 03:57:56;;;;;;;6.70;2.30;;;15.90;99.90;;;;;;20544185;28;20032;-80
2021/08/30 04:07:59;;;;;;;7.80;2.63;;;15.90;99.90;;;;;;20578148;28;20155;-80
2021/08/30 04:18:01;;;;;;;6.80;2.67;;;16.00;99.90;;;;;;20564146;28;20397;-80
2021/08/30 04:28:05;;;;;;;12.27;3.05;;;16.10;99.90;;;;;;20535739;28;20051;-80
2021/08/30 04:38:07;;;;;;;9.23;4.47;;;16.10;99.90;;;;;;20557986;28;20064;-80
2021/08/30 04:48:08;;;;;;;9.00;3.10;;;16.10;99.90;;;;;;20510704;28;20055;-80
2021/08/30 04:58:11;;;;;;;9.88;3.63;;;16.20;99.90;;;;;;20523078;28;20067;-80
2021/08/30 05:08:12;;;;;;;6.93;3.25;;;16.30;99.90;;;;;;20576331;28;20051;-80
2021/08/30 05:18:13;;;;;;;11.10;4.55;;;16.40;99.90;;;;;;20556509;28;20035;-80
2021/08/30 05:28:14;;;;;;;12.15;4.57;;;16.40;99.90;;;;;;20515499;28;20050;-80
2021/08/30 05:38:16;;;;;;;9.77;3.92;;;16.40;99.90;;;;;;20524354;28;20387;-80
2021/08/30 05:48:17;;;;;;;8.48;3.00;;;16.50;99.90;;;;;;20549954;28;20051;-80
2021/08/30 05:58:18;;;;;;;9.10;3.42;;;16.50;99.90;;;;;;20583176;28;20046;-80
2021/08/30 06:08:20;;;;;;;7.43;3.60;;;16.60;99.90;;;;;;20591201;28;20046;-80
2021/08/30 06:18:21;;;;;;;8.40;3.42;;;16.70;99.90;;;;;;20573189;28;20057;-80
2021/08/30 06:28:22;;;;;;;6.18;2.55;;;16.70;99.90;;;;;;20541063;28;20484;-80
2021/08/30 06:38:23;;;;;;;7.57;3.50;;;16.90;99.90;;;;;;20569899;28;20039;-80
2021/08/30 06:48:24;;;;;;;10.45;4.03;;;17.10;99.90;;;;;;20551676;28;20046;-80
2021/08/30 06:58:25;;;;;;;10.70;3.60;;;17.20;99.90;;;;;;20581840;28;20397;-80
2021/08/30 07:08:26;;;;;;;9.13;3.50;;;17.30;99.90;;;;;;20517875;28;20046;-79
2021/08/30 07:18:28;;;;;;;9.07;4.45;;;17.30;99.90;;;;;;20510195;28;20383;-79
2021/08/30 07:28:29;;;;;;;7.07;3.10;;;17.30;99.90;;;;;;20543292;28;20058;-80
2021/08/30 07:38:30;;;;;;;9.48;3.40;;;17.20;99.90;;;;;;20533732;28;20522;-80
2021/08/30 07:48:31;;;;;;;11.65;3.58;;;17.20;99.90;;;;;;20564475;28;20043;-80
2021/08/30 07:58:32;;;;;;;6.15;2.85;;;17.20;99.90;;;;;;20570760;28;20042;-80
2021/08/30 08:08:33;;;;;;;7.85;2.50;;;17.30;99.90;;;;;;20546733;28;20049;-80
2021/08/30 08:18:34;;;;;;;7.25;2.95;;;17.40;99.90;;;;;;20557792;28;20049;-80
2021/08/30 08:28:36;;;;;;;8.10;3.25;;;17.50;99.90;;;;;;20505152;28;20527;-80
2021/08/30 08:38:37;;;;;;;6.82;3.22;;;17.50;99.90;;;;;;20559364;28;20034;-80
2021/08/30 08:48:38;;;;;;;7.25;2.33;;;17.50;99.90;;;;;;20575864;28;20047;-80
2021/08/30 08:58:40;;;;;;;5.95;2.33;;;17.70;99.90;;;;;;20544984;28;20031;-78
2021/08/30 09:08:42;;;;;;;4.95;2.15;;;17.90;99.90;;;;;;20543689;28;20149;-77
2021/08/30 09:18:43;;;;;;;5.63;2.10;;;18.40;99.90;;;;;;20602757;28;20411;-77
2021/08/30 09:28:55;;;;;;;10.02;2.38;;;18.70;99.90;;;;;;20514910;28;20046;-77
2021/08/30 09:39:00;;;;;;;6.05;2.53;;;18.90;99.90;;;;;;20569133;28;20035;-77
2021/08/30 09:49:08;;;;;;;6.07;1.98;;;19.10;99.90;;;;;;20549616;28;20058;-77
2021/08/30 09:59:09;;;;;;;5.53;2.28;;;19.30;99.90;;;;;;20535527;28;20048;-77
2021/08/30 10:09:13;;;;;;;3.67;1.73;;;19.60;99.90;;;;;;20559493;28;20743;-77
2021/08/30 10:19:28;;;;;;;5.32;2.42;;;19.90;99.90;;;;;;20567593;28;20042;-77
2021/08/30 10:29:40;;;;;;;9.65;2.95;;;19.90;99.90;;;;;;20569463;28;21301;-77
2021/08/30 10:39:44;;;;;;;6.57;2.67;;;20.20;99.90;;;;;;20586599;28;20502;-77
2021/08/30 10:49:50;;;;;;;5.70;2.92;;;20.40;99.90;;;;;;20561575;28;20375;-77
2021/08/30 10:59:57;;;;;;;4.75;2.00;;;20.30;99.90;;;;;;20583577;28;20039;-77
2021/08/30 11:10:00;;;;;;;8.40;2.85;;;20.20;99.90;;;;;;20568817;28;20053;-77
2021/08/30 11:20:03;;;;;;;4.22;1.95;;;19.90;99.90;;;;;;20517392;28;20030;-77
2021/08/30 11:30:09;;;;;;;8.02;2.20;;;20.20;99.90;;;;;;20544083;28;20055;-77
2021/08/30 11:40:12;;;;;;;7.45;1.80;;;20.70;99.90;;;;;;20540139;28;20049;-77
2021/08/30 11:50:13;;;;;;;5.40;2.28;;;21.10;99.90;;;;;;20496021;28;20051;-79
2021/08/30 12:00:23;;;;;;;4.85;2.10;;;21.60;99.90;;;;;;20519824;28;20057;-79
2021/08/30 12:10:26;;;;;;;3.63;1.63;;;21.60;99.90;;;;;;20537033;28;20065;-79
2021/08/30 12:20:30;;;;;;;5.25;1.60;;;21.90;99.90;;;;;;20501102;28;20043;-79
2021/08/30 12:30:39;;;;;;;3.60;2.05;;;21.90;99.90;;;;;;20460602;28;20060;-79
2021/08/30 12:40:43;;;;;;;3.40;1.63;;;21.50;99.90;;;;;;20511127;28;20037;-79
2021/08/30 12:50:45;;;;;;;3.15;1.35;;;22.10;99.90;;;;;;20477156;28;20524;-78
2021/08/30 13:00:47;;;;;;;3.38;1.70;;;22.40;99.90;;;;;;20497168;28;20850;-78
2021/08/30 13:10:49;;;;;;;5.57;1.58;;;22.50;99.90;;;;;;20478617;28;20397;-78
2021/08/30 13:20:52;;;;;;;4.18;1.00;;;22.60;99.90;;;;;;20518005;28;20396;-79
2021/08/30 13:30:54;;;;;;;6.55;1.63;;;22.40;99.90;;;;;;20479056;28;20060;-78
2021/08/30 13:40:55;;;;;;;3.13;1.10;;;22.70;99.90;;;;;;20555977;28;20130;-78
2021/08/30 13:50:56;;;;;;;3.15;1.42;;;23.30;99.90;;;;;;20544095;28;20131;-79
2021/08/30 14:00:58;;;;;;;2.63;1.25;;;23.20;99.90;;;;;;20552245;28;20122;-78
2021/08/30 14:10:59;;;;;;;3.65;1.05;;;23.00;99.90;;;;;;20549759;28;20074;-79
2021/08/30 14:21:00;;;;;;;3.05;1.63;;;22.90;99.90;;;;;;20537359;28;20031;-79
2021/08/30 14:31:01;;;;;;;9.00;1.25;;;22.40;99.90;;;;;;20534289;28;20386;-79
2021/08/30 14:41:03;;;;;;;3.58;1.33;;;22.20;99.90;;;;;;20548651;28;20044;-79
2021/08/30 14:51:04;;;;;;;3.42;1.20;;;21.80;99.90;;;;;;20493072;28;20438;-79
2021/08/30 15:01:06;;;;;;;3.53;1.50;;;21.30;99.90;;;;;;20537696;28;20061;-79
2021/08/30 15:11:09;;;;;;;4.68;1.50;;;21.40;99.90;;;;;;20509849;28;20050;-79
2021/08/30 15:21:11;;;;;;;2.97;1.10;;;21.00;99.90;;;;;;20556438;28;20050;-77
2021/08/30 15:31:12;;;;;;;7.97;1.48;;;20.90;99.90;;;;;;20514954;28;20047;-77
2021/08/30 15:41:15;;;;;;;2.53;0.73;;;20.60;99.90;;;;;;20544902;28;20050;-77
2021/08/30 15:51:16;;;;;;;9.20;1.45;;;20.40;99.90;;;;;;20497695;28;20045;-77
2021/08/30 16:01:24;;;;;;;;;;;20.40;99.90;;;;;;20536489;28;20047;-77
2021/08/30 16:11:25;;;;;;;4.10;1.42;;;20.10;99.90;;;;;;20487045;28;19926;-77
2021/08/30 16:21:26;;;;;;;4.95;1.20;;;20.00;99.90;;;;;;20518091;28;20052;-77
2021/08/30 16:31:31;;;;;;;6.45;1.08;;;19.80;99.90;;;;;;20515111;28;20048;-77
2021/08/30 16:41:32;;;;;;;4.80;1.50;;;19.60;99.90;;;;;;20574100;28;20046;-77
2021/08/30 16:51:33;;;;;;;2.65;1.02;;;19.40;99.90;;;;;;20551092;28;20452;-78
2021/08/30 17:01:34;;;;;;;3.83;1.38;;;19.30;99.90;;;;;;20499957;28;20061;-78
2021/08/30 17:11:35;;;;;;;3.47;1.50;;;19.20;99.90;;;;;;20544709;28;20049;-78
2021/08/30 17:21:38;;;;;;;5.40;1.73;;;19.00;99.90;;;;;;20530757;28;20034;-78
2021/08/30 17:31:40;;;;;;;3.78;1.30;;;18.80;99.90;;;;;;20508640;28;20040;-77
2021/08/30 17:41:41;;;;;;;3.72;1.25;;;18.60;99.90;;;;;;20439042;28;20406;-80
2021/08/30 17:51:42;;;;;;;3.67;1.50;;;18.40;99.90;;;;;;20486261;28;20047;-79
2021/08/30 18:01:45;;;;;;;7.25;1.33;;;18.40;99.90;;;;;;20436205;28;20476;-79
2021/08/30 18:11:47;;;;;;;5.72;1.65;;;18.20;99.90;;;;;;20461582;28;20048;-79
2021/08/30 18:21:48;;;;;;;3.03;1.35;;;18.10;99.90;;;;;;20482628;28;20038;-79
2021/08/30 18:31:51;;;;;;;5.40;2.22;;;18.10;99.90;;;;;;20421108;28;20053;-79
2021/08/30 18:41:53;;;;;;;4.05;1.50;;;17.90;99.90;;;;;;20502962;28;20038;-79
2021/08/30 18:51:54;;;;;;;2.72;1.40;;;17.80;99.90;;;;;;20543720;28;20061;-79
2021/08/30 19:01:55;;;;;;;8.48;1.20;;;17.80;99.90;;;;;;20550366;28;20483;-79
2021/08/30 19:11:56;;;;;;;3.30;1.23;;;17.80;99.90;;;;;;20536849;28;20442;-79
2021/08/30 19:21:58;;;;;;;4.13;1.92;;;17.70;99.90;;;;;;20529706;28;20367;-79
2021/08/30 19:31:59;;;;;;;5.38;1.48;;;17.60;99.90;;;;;;20502352;28;20050;-79
2021/08/30 19:42:00;;;;;;;9.77;1.70;;;17.70;99.90;;;;;;20552572;28;20034;-79
2021/08/30 19:52:01;;;;;;;6.38;1.90;;;17.60;99.90;;;;;;20511012;28;20042;-79
2021/08/30 20:02:02;;;;;;;6.38;2.80;;;17.50;99.90;;;;;;20509134;28;20807;-79
2021/08/30 20:12:04;;;;;;;5.40;1.67;;;17.50;99.90;;;;;;20522628;28;20055;-79
2021/08/30 20:22:05;;;;;;;6.82;1.90;;;17.40;99.90;;;;;;20514268;28;20031;-78
2021/08/30 20:32:06;;;;;;;5.38;1.58;;;17.40;99.90;;;;;;20536946;28;20073;-79
2021/08/30 20:42:08;;;;;;;8.25;2.67;;;17.40;99.90;;;;;;20434784;28;20055;-79
2021/08/30 20:52:09;;;;;;;7.65;2.83;;;17.30;99.90;;;;;;20430832;28;20054;-79
2021/08/30 21:02:12;;;;;;;4.10;1.73;;;17.20;99.90;;;;;;20485393;28;20027;-79
2021/08/30 21:12:13;;;;;;;4.72;1.80;;;17.20;99.90;;;;;;20437033;28;20057;-79
2021/08/30 21:22:14;;;;;;;3.50;1.35;;;17.10;99.90;;;;;;20457799;28;20044;-79
2021/08/30 21:32:18;;;;;;;2.97;1.30;;;17.20;99.90;;;;;;20472867;28;20055;-79
2021/08/30 21:42:19;;;;;;;8.50;1.63;;;17.00;99.90;;;;;;20536944;28;20054;-79
2021/08/30 21:52:21;;;;;;;3.47;1.38;;;17.00;99.90;;;;;;20518399;28;20050;-79
2021/08/30 22:02:23;;;;;;;3.80;1.60;;;16.80;99.90;;;;;;20522129;28;20461;-78
2021/08/30 22:12:24;;;;;;;3.90;1.48;;;16.80;99.90;;;;;;20552079;28;20063;-79
2021/08/30 22:22:25;;;;;;;6.35;2.40;;;16.70;99.90;;;;;;20491684;28;20038;-79
2021/08/30 22:32:26;;;;;;;4.03;1.48;;;16.60;99.90;;;;;;20503690;28;20043;-78
2021/08/30 22:42:28;;;;;;;4.95;1.92;;;16.70;99.90;;;;;;20517908;28;20053;-79
2021/08/30 22:52:29;;;;;;;4.18;1.92;;;16.70;99.90;;;;;;20478398;28;20403;-79
2021/08/30 23:02:30;;;;;;;4.25;1.73;;;16.60;99.90;;;;;;20477531;28;20042;-79
2021/08/30 23:12:31;;;;;;;3.95;1.25;;;16.50;99.90;;;;;;20532854;28;20048;-79
2021/08/30 23:22:33;;;;;;;3.55;1.77;;;16.50;99.90;;;;;;20528843;28;20460;-78
2021/08/30 23:32:35;;;;;;;4.03;1.98;;;16.40;99.90;;;;;;20506048;28;20053;-79
2021/08/30 23:42:36;;;;;;;3.88;1.95;;;16.40;99.90;;;;;;20486830;28;20051;-78
2021/08/30 23:52:37;;;;;;;6.97;2.00;;;16.30;99.90;;;;;;20502017;28;20046;-79
